Time,TemperatureF,DewpointF,PressureIn,WindDirection,WindDirectionDegrees,WindSpeedMPH,WindSpeedGustMPH,Humidity,HourlyPrecipIn,Conditions,Clouds,dailyrainin,SolarRadiationWatts/m^2,SoftwareType,DateUTC
2013-01-26 00:04:00,40.1,35.0,30.27,SSE,153,9.0,18.0,82,0.00,,,0.02,0,weatherlink.com 1.10,2013-01-26 07:04:00,
2013-01-26 00:19:00,40.0,35.0,30.27,SE,146,11.0,15.0,82,0.00,,,0.02,0,weatherlink.com 1.10,2013-01-26 07:19:00,
2013-01-26 00:34:00,40.3,35.0,30.26,SE,133,7.0,14.0,81,0.00,,,0.02,0,weatherlink.com 1.10,2013-01-26 07:34:00,
2013-01-26 00:49:00,40.5,35.0,30.26,ESE,106,4.0,10.0,80,0.00,,,0.02,0,weatherlink.com 1.10,2013-01-26 07:49:00,
2013-01-26 01:04:00,38.6,35.0,30.26,ENE,74,2.0,3.0,85,0.00,,,0.02,0,weatherlink.com 1.10,2013-01-26 08:04:00,
2013-01-26 01:19:00,38.5,34.0,30.25,South,189,3.0,3.0,85,0.00,,,0.02,0,weatherlink.com 1.10,2013-01-26 08:19:00,
2013-01-26 01:34:00,38.0,35.0,30.25,WSW,244,3.0,5.0,87,0.00,,,0.02,0,weatherlink.com 1.10,2013-01-26 08:34:00,
2013-01-26 01:49:00,37.6,34.0,30.25,North,5,3.0,5.0,88,0.00,,,0.02,0,weatherlink.com 1.10,2013-01-26 08:49:00,
2013-01-26 02:04:00,37.3,34.0,30.25,ENE,78,5.0,6.0,88,0.00,,,0.02,0,weatherlink.com 1.10,2013-01-26 09:04:00,
2013-01-26 02:19:00,37.9,34.0,30.24,ENE,69,2.0,7.0,87,0.00,,,0.02,0,weatherlink.com 1.10,2013-01-26 09:19:00,
2013-01-26 02:34:00,38.2,35.0,30.24,ENE,66,2.0,3.0,87,0.00,,,0.02,0,weatherlink.com 1.10,2013-01-26 09:34:00,
2013-01-26 02:49:00,37.3,34.0,30.24,NNE,22,3.0,5.0,88,0.00,,,0.02,0,weatherlink.com 1.10,2013-01-26 09:49:00,
2013-01-26 03:04:00,37.3,34.0,30.23,NE,36,3.0,5.0,89,0.00,,,0.02,0,weatherlink.com 1.10,2013-01-26 10:04:00,
2013-01-26 03:19:00,37.8,35.0,30.23,NE,40,1.0,3.0,88,0.00,,,0.02,0,weatherlink.com 1.10,2013-01-26 10:19:00,
2013-01-26 03:34:00,37.7,35.0,30.22,NE,39,3.0,4.0,88,0.00,,,0.02,0,weatherlink.com 1.10,2013-01-26 10:34:00,
2013-01-26 03:49:00,37.1,34.0,30.22,NE,38,0.0,4.0,89,0.00,,,0.02,0,weatherlink.com 1.10,2013-01-26 10:49:00,
2013-01-26 04:04:00,37.5,35.0,30.21,NE,38,1.0,3.0,89,0.00,,,0.02,0,weatherlink.com 1.10,2013-01-26 11:04:00,
2013-01-26 04:19:00,36.6,34.0,30.21,NE,38,1.0,4.0,90,0.00,,,0.00,0,weatherlink.com 1.10,2013-01-26 11:19:00,
2013-01-26 04:34:00,37.3,34.0,30.21,South,186,3.0,5.0,89,0.00,,,0.00,0,weatherlink.com 1.10,2013-01-26 11:34:00,
2013-01-26 04:49:00,36.8,34.0,30.20,West,280,0.0,3.0,89,0.00,,,0.00,0,weatherlink.com 1.10,2013-01-26 11:49:00,
2013-01-26 05:04:00,36.9,34.0,30.20,South,180,4.0,5.0,90,0.00,,,0.00,0,weatherlink.com 1.10,2013-01-26 12:04:00,
2013-01-26 05:19:00,36.9,34.0,30.19,SSE,166,1.0,5.0,90,0.00,,,0.00,0,weatherlink.com 1.10,2013-01-26 12:19:00,
2013-01-26 05:34:00,36.4,34.0,30.19,SW,221,5.0,7.0,91,0.00,,,0.00,0,weatherlink.com 1.10,2013-01-26 12:34:00,
2013-01-26 05:49:00,36.6,34.0,30.18,SSW,202,4.0,7.0,90,0.00,,,0.00,0,weatherlink.com 1.10,2013-01-26 12:49:00,
2013-01-26 06:04:00,36.3,34.0,30.18,South,175,2.0,6.0,91,0.00,,,0.00,0,weatherlink.com 1.10,2013-01-26 13:04:00,
2013-01-26 06:19:00,35.7,33.0,30.17,SSW,193,7.0,10.0,91,0.00,,,0.00,0,weatherlink.com 1.10,2013-01-26 13:19:00,
2013-01-26 06:34:00,34.9,33.0,30.17,South,180,4.0,7.0,92,0.00,,,0.00,0,weatherlink.com 1.10,2013-01-26 13:34:00,
2013-01-26 06:49:00,34.2,32.0,30.17,SE,137,1.0,3.0,91,0.00,,,0.00,0,weatherlink.com 1.10,2013-01-26 13:49:00,
2013-01-26 07:19:00,33.0,32.0,30.16,NE,48,1.0,3.0,95,0.00,,,0.00,0,weatherlink.com 1.10,2013-01-26 14:19:00,
2013-01-26 07:34:00,32.3,31.0,30.16,NE,34,6.0,8.0,95,0.00,,,0.00,0,weatherlink.com 1.10,2013-01-26 14:34:00,
2013-01-26 07:49:00,33.5,32.0,30.16,NNE,24,5.0,6.0,95,0.00,,,0.00,0,weatherlink.com 1.10,2013-01-26 14:49:00,
2013-01-26 08:04:00,32.9,32.0,30.16,NE,48,3.0,6.0,95,0.00,,,0.00,0,weatherlink.com 1.10,2013-01-26 15:04:00,
2013-01-26 08:19:00,32.8,32.0,30.16,NNE,27,5.0,8.0,95,0.00,,,0.00,7,weatherlink.com 1.10,2013-01-26 15:19:00,
2013-01-26 08:34:00,33.4,32.0,30.15,NE,35,4.0,6.0,96,0.00,,,0.00,21,weatherlink.com 1.10,2013-01-26 15:34:00,
2013-01-26 08:49:00,33.7,33.0,30.15,NE,35,4.0,8.0,96,0.00,,,0.00,30,weatherlink.com 1.10,2013-01-26 15:49:00,
2013-01-26 09:04:00,35.0,34.0,30.15,ENE,78,2.0,4.0,96,0.00,,,0.00,70,weatherlink.com 1.10,2013-01-26 16:04:00,
2013-01-26 09:20:00,34.5,33.0,30.15,North,360,5.0,7.0,93,0.00,,,0.00,163,weatherlink.com 1.10,2013-01-26 16:20:00,
2013-01-26 09:35:00,33.8,33.0,30.14,NE,34,6.0,9.0,95,0.00,,,0.00,72,weatherlink.com 1.10,2013-01-26 16:35:00,
2013-01-26 09:50:00,34.4,33.0,30.14,North,360,8.0,9.0,95,0.00,,,0.00,114,weatherlink.com 1.10,2013-01-26 16:50:00,
2013-01-26 10:05:00,34.0,33.0,30.15,NNE,15,9.0,10.0,94,0.00,,,0.00,146,weatherlink.com 1.10,2013-01-26 17:05:00,
2013-01-26 10:20:00,33.8,33.0,30.14,NE,34,9.0,13.0,95,0.00,,,0.00,135,weatherlink.com 1.10,2013-01-26 17:20:00,
2013-01-26 10:35:00,33.9,33.0,30.15,NNE,19,15.0,16.0,95,0.00,,,0.00,95,weatherlink.com 1.10,2013-01-26 17:35:00,
2013-01-26 10:50:00,35.3,34.0,30.16,NNE,22,17.0,21.0,96,0.00,,,0.00,77,weatherlink.com 1.10,2013-01-26 17:50:00,
2013-01-26 11:05:00,35.4,34.0,30.16,NNE,16,19.0,29.0,93,0.00,,,0.00,98,weatherlink.com 1.10,2013-01-26 18:05:00,
2013-01-26 11:20:00,36.9,34.0,30.16,NNE,27,17.0,29.0,89,0.00,,,0.00,86,weatherlink.com 1.10,2013-01-26 18:20:00,
2013-01-26 11:35:00,37.6,34.0,30.16,NNE,30,19.0,26.0,86,0.00,,,0.00,93,weatherlink.com 1.10,2013-01-26 18:35:00,
2013-01-26 11:50:00,37.2,33.0,30.15,NNE,17,28.0,30.0,85,0.00,,,0.00,114,weatherlink.com 1.10,2013-01-26 18:50:00,
2013-01-26 12:05:00,37.7,33.0,30.15,NNE,28,20.0,29.0,84,0.00,,,0.00,104,weatherlink.com 1.10,2013-01-26 19:05:00,
2013-01-26 12:20:00,38.1,33.0,30.15,NNE,20,20.0,30.0,82,0.00,,,0.00,104,weatherlink.com 1.10,2013-01-26 19:20:00,
2013-01-26 12:35:00,35.9,33.0,30.16,North,360,23.0,35.0,88,0.00,,,0.00,90,weatherlink.com 1.10,2013-01-26 19:35:00,
2013-01-26 12:50:00,36.2,33.0,30.15,NNE,21,27.0,28.0,87,0.00,,,0.00,113,weatherlink.com 1.10,2013-01-26 19:50:00,
2013-01-26 13:05:00,36.6,32.0,30.15,NNE,28,21.0,27.0,84,0.00,,,0.00,111,weatherlink.com 1.10,2013-01-26 20:05:00,
2013-01-26 13:20:00,36.6,33.0,30.16,NNE,16,19.0,26.0,85,0.00,,,0.00,95,weatherlink.com 1.10,2013-01-26 20:20:00,
2013-01-26 13:35:00,37.1,32.0,30.15,NNE,26,22.0,29.0,81,0.00,,,0.00,139,weatherlink.com 1.10,2013-01-26 20:35:00,
2013-01-26 13:50:00,37.2,30.0,30.16,NNE,14,18.0,27.0,76,0.00,,,0.00,142,weatherlink.com 1.10,2013-01-26 20:50:00,
2013-01-26 14:05:00,36.9,30.0,30.16,NNE,12,16.0,26.0,76,0.00,,,0.00,121,weatherlink.com 1.10,2013-01-26 21:05:00,
2013-01-26 14:20:00,37.1,30.0,30.16,NNE,19,17.0,23.0,75,0.00,,,0.00,104,weatherlink.com 1.10,2013-01-26 21:20:00,
2013-01-26 14:35:00,37.2,29.0,30.16,NNE,32,21.0,27.0,73,0.00,,,0.00,127,weatherlink.com 1.10,2013-01-26 21:35:00,
2013-01-26 14:50:00,37.7,28.0,30.16,North,355,16.0,28.0,69,0.00,,,0.00,167,weatherlink.com 1.10,2013-01-26 21:50:00,
2013-01-26 15:05:00,37.8,28.0,30.16,NNE,25,23.0,24.0,69,0.00,,,0.00,134,weatherlink.com 1.10,2013-01-26 22:05:00,
2013-01-26 15:20:00,38.1,29.0,30.15,NNE,23,24.0,27.0,70,0.00,,,0.00,425,weatherlink.com 1.10,2013-01-26 22:20:00,
2013-01-26 15:35:00,38.5,29.0,30.16,NNE,16,21.0,24.0,70,0.00,,,0.00,341,weatherlink.com 1.10,2013-01-26 22:35:00,
2013-01-26 15:50:00,38.2,29.0,30.15,NNE,12,16.0,22.0,69,0.00,,,0.00,186,weatherlink.com 1.10,2013-01-26 22:50:00,
2013-01-26 16:05:00,38.2,29.0,30.15,North,5,12.0,20.0,70,0.00,,,0.00,102,weatherlink.com 1.10,2013-01-26 23:05:00,
2013-01-26 16:20:00,37.2,29.0,30.16,North,360,10.0,16.0,71,0.00,,,0.00,49,weatherlink.com 1.10,2013-01-26 23:20:00,
2013-01-26 16:35:00,37.1,29.0,30.16,North,360,10.0,13.0,72,0.00,,,0.00,40,weatherlink.com 1.10,2013-01-26 23:35:00,
2013-01-26 16:50:00,36.6,29.0,30.16,North,355,6.0,10.0,75,0.00,,,0.00,19,weatherlink.com 1.10,2013-01-26 23:50:00,
2013-01-26 17:05:00,35.6,30.0,30.16,North,5,5.0,7.0,79,0.00,,,0.00,7,weatherlink.com 1.10,2013-01-27 00:05:00,
2013-01-26 17:20:00,35.1,30.0,30.17,NNE,13,6.0,7.0,82,0.00,,,0.00,5,weatherlink.com 1.10,2013-01-27 00:20:00,
2013-01-26 17:35:00,34.8,30.0,30.17,North,355,5.0,6.0,84,0.00,,,0.00,0,weatherlink.com 1.10,2013-01-27 00:35:00,
2013-01-26 17:50:00,34.5,31.0,30.18,North,5,7.0,9.0,86,0.00,,,0.00,0,weatherlink.com 1.10,2013-01-27 00:50:00,
2013-01-26 18:05:00,34.3,31.0,30.18,NE,34,5.0,8.0,86,0.00,,,0.00,0,weatherlink.com 1.10,2013-01-27 01:05:00,
2013-01-26 18:20:00,34.8,30.0,30.18,NNE,20,2.0,4.0,82,0.00,,,0.00,0,weatherlink.com 1.10,2013-01-27 01:20:00,
2013-01-26 18:35:00,35.3,30.0,30.18,ENE,58,0.0,5.0,80,0.00,,,0.00,0,weatherlink.com 1.10,2013-01-27 01:35:00,
2013-01-26 18:50:00,34.7,30.0,30.18,SW,222,4.0,4.0,83,0.00,,,0.00,0,weatherlink.com 1.10,2013-01-27 01:50:00,
2013-01-26 19:05:00,34.4,30.0,30.19,SSW,213,2.0,4.0,84,0.00,,,0.00,0,weatherlink.com 1.10,2013-01-27 02:05:00,
2013-01-26 19:20:00,34.3,30.0,30.19,SSW,213,1.0,4.0,84,0.00,,,0.00,0,weatherlink.com 1.10,2013-01-27 02:20:00,
2013-01-26 19:35:00,34.4,30.0,30.19,SSW,213,1.0,2.0,84,0.00,,,0.00,0,weatherlink.com 1.10,2013-01-27 02:35:00,
2013-01-26 19:50:00,33.9,30.0,30.19,North,355,6.0,7.0,86,0.00,,,0.00,0,weatherlink.com 1.10,2013-01-27 02:50:00,
2013-01-26 20:05:00,33.2,30.0,30.19,NNE,30,5.0,5.0,88,0.00,,,0.00,0,weatherlink.com 1.10,2013-01-27 03:05:00,
2013-01-26 20:20:00,33.6,30.0,30.19,NNE,26,6.0,8.0,87,0.00,,,0.00,0,weatherlink.com 1.10,2013-01-27 03:20:00,
2013-01-26 20:35:00,34.1,30.0,30.19,NE,34,8.0,11.0,85,0.00,,,0.00,0,weatherlink.com 1.10,2013-01-27 03:35:00,
2013-01-26 20:50:00,33.7,30.0,30.18,NE,34,10.0,12.0,86,0.00,,,0.00,0,weatherlink.com 1.10,2013-01-27 03:50:00,
2013-01-26 21:05:00,34.3,30.0,30.19,NE,34,8.0,13.0,83,0.00,,,0.00,0,weatherlink.com 1.10,2013-01-27 04:05:00,
2013-01-26 21:20:00,34.5,30.0,30.18,NNE,29,6.0,12.0,82,0.00,,,0.00,0,weatherlink.com 1.10,2013-01-27 04:20:00,
2013-01-26 21:35:00,34.4,29.0,30.19,NNE,13,8.0,11.0,81,0.00,,,0.00,0,weatherlink.com 1.10,2013-01-27 04:35:00,
2013-01-26 21:50:00,34.0,29.0,30.20,NNE,28,10.0,14.0,82,0.00,,,0.00,0,weatherlink.com 1.10,2013-01-27 04:50:00,
2013-01-26 22:05:00,33.7,29.0,30.20,North,360,11.0,14.0,84,0.00,,,0.00,0,weatherlink.com 1.10,2013-01-27 05:05:00,
2013-01-26 22:20:00,33.7,29.0,30.20,NNE,15,14.0,15.0,84,0.00,,,0.00,0,weatherlink.com 1.10,2013-01-27 05:20:00,
2013-01-26 22:35:00,33.2,30.0,30.21,NNW,346,13.0,17.0,86,0.00,,,0.00,0,weatherlink.com 1.10,2013-01-27 05:35:00,
2013-01-26 22:50:00,33.8,27.0,30.21,NNE,17,15.0,23.0,75,0.00,,,0.00,0,weatherlink.com 1.10,2013-01-27 05:50:00,
2013-01-26 23:05:00,34.2,26.0,30.21,NNE,19,15.0,22.0,71,0.00,,,0.00,0,weatherlink.com 1.10,2013-01-27 06:05:00,
2013-01-26 23:20:00,33.8,26.0,30.21,NE,40,15.0,22.0,72,0.00,,,0.00,0,weatherlink.com 1.10,2013-01-27 06:20:00,
2013-01-26 23:35:00,33.6,25.0,30.22,North,5,12.0,22.0,72,0.00,,,0.00,0,weatherlink.com 1.10,2013-01-27 06:35:00,
2013-01-26 23:50:00,33.3,25.0,30.22,North,360,14.0,15.0,72,0.00,,,0.00,0,weatherlink.com 1.10,2013-01-27 06:50:00,